Terminal Aerodrome Forecast
Issued by NWS

Home | Current Version | Previous Version | Graphics & Text | Print | Product List | Glossary On
Versions: 1 2 3 4 5 6 7 8 9 10 11 12 13
815
FTUS43 KIWX 210520
TAFSBN
TAF
KSBN 210520Z 2106/2206 00000KT P6SM SKC
     FM211000 18004KT 5SM BR FEW015 BKN200
     FM211400 17008KT P6SM FEW050
     FM220100 VRB03KT P6SM SCT250=

USA.gov is the U.S. government's official web portal to all federal, state and local government web resources and services.